createdAt,value
2023-03-03T00:02:12.763Z,11.52
2023-03-03T00:04:41.342Z,11.55
2023-03-03T00:07:09.314Z,11.10
2023-03-03T00:09:37.780Z,11.00
2023-03-03T00:12:25.065Z,10.45
2023-03-03T00:14:54.202Z,10.50
2023-03-03T00:17:25.096Z,9.40
2023-03-03T00:19:53.643Z,8.90
2023-03-03T00:22:32.229Z,8.25
2023-03-03T00:25:31.937Z,9.32
2023-03-03T00:28:31.088Z,9.30
2023-03-03T00:31:01.807Z,9.32
2023-03-03T00:33:35.534Z,9.50
2023-03-03T00:36:16.493Z,9.05
2023-03-03T00:38:44.447Z,9.02
2023-03-03T00:41:27.945Z,8.25
2023-03-03T00:43:55.944Z,7.55
2023-03-03T00:46:24.517Z,7.40
2023-03-03T00:48:53.082Z,8.18
2023-03-03T00:51:28.539Z,8.43
2023-03-03T00:53:58.417Z,6.60
2023-03-03T00:56:27.930Z,6.47
2023-03-03T00:58:56.146Z,7.68
2023-03-03T01:01:25.992Z,7.72
2023-03-03T01:03:55.562Z,8.25
2023-03-03T01:06:24.018Z,7.65
2023-03-03T01:08:52.105Z,7.80
2023-03-03T01:11:24.175Z,8.35
2023-03-03T01:13:53.628Z,7.95
2023-03-03T01:16:22.040Z,7.63
2023-03-03T01:18:51.775Z,8.13
2023-03-03T01:21:20.157Z,8.10
2023-03-03T01:23:48.117Z,7.95
2023-03-03T01:26:16.826Z,7.55
2023-03-03T01:28:44.793Z,7.38
2023-03-03T01:31:13.871Z,7.80
2023-03-03T01:33:42.143Z,6.72
2023-03-03T01:36:10.569Z,7.18
2023-03-03T01:38:39.462Z,6.55
2023-03-03T01:41:07.722Z,6.50
2023-03-03T01:43:35.726Z,7.22
2023-03-03T01:46:03.969Z,6.18
2023-03-03T01:48:39.240Z,6.78
2023-03-03T01:51:07.620Z,7.57
2023-03-03T01:53:43.075Z,6.75
2023-03-03T01:56:11.725Z,7.65
2023-03-03T01:58:49.766Z,7.30
2023-03-03T02:01:22.476Z,6.75
2023-03-03T02:03:53.599Z,7.25
2023-03-03T02:06:30.180Z,6.22
2023-03-03T02:09:08.207Z,7.10
2023-03-03T02:11:38.449Z,6.93
2023-03-03T02:14:06.354Z,6.47
2023-03-03T02:16:34.697Z,6.43
2023-03-03T02:19:05.694Z,6.80
2023-03-03T02:21:33.964Z,6.97
2023-03-03T02:24:19.964Z,6.35
2023-03-03T02:26:48.936Z,6.07
2023-03-03T02:29:16.963Z,5.70
2023-03-03T02:31:45.843Z,6.00
2023-03-03T02:34:13.798Z,6.10
2023-03-03T02:36:42.852Z,6.32
2023-03-03T02:39:23.768Z,6.70
2023-03-03T02:42:08.490Z,7.13
2023-03-03T02:44:42.756Z,5.85
2023-03-03T02:47:11.049Z,5.82
2023-03-03T02:49:39.780Z,6.75
2023-03-03T02:52:10.873Z,6.03
2023-03-03T02:57:10.190Z,6.22
2023-03-03T02:59:38.159Z,7.75
2023-03-03T03:02:13.219Z,4.93
2023-03-03T03:04:42.357Z,8.25
2023-03-03T03:07:12.297Z,6.22
2023-03-03T03:09:40.788Z,6.20
2023-03-03T03:12:09.011Z,6.60
2023-03-03T03:14:37.571Z,6.63
2023-03-03T03:17:07.459Z,6.20
2023-03-03T03:19:35.454Z,6.80
2023-03-03T03:22:04.783Z,6.47
2023-03-03T03:24:35.739Z,7.68
2023-03-03T03:27:06.958Z,7.53
2023-03-03T03:29:35.309Z,7.60
2023-03-03T03:32:03.837Z,7.43
2023-03-03T03:34:31.848Z,6.40
2023-03-03T03:37:00.220Z,6.97
2023-03-03T03:39:29.929Z,8.05
2023-03-03T03:41:58.486Z,6.88
2023-03-03T03:44:26.435Z,7.15
2023-03-03T03:46:56.054Z,8.30
2023-03-03T03:49:24.180Z,9.27
2023-03-03T03:51:54.709Z,6.85
2023-03-03T03:54:26.115Z,9.07
2023-03-03T03:56:55.376Z,8.10
2023-03-03T03:59:24.094Z,7.30
2023-03-03T04:01:52.717Z,6.97
2023-03-03T04:04:22.515Z,6.90
2023-03-03T04:06:51.088Z,7.05
2023-03-03T04:09:20.329Z,8.52
2023-03-03T04:11:49.584Z,7.55
2023-03-03T04:14:18.543Z,7.95
2023-03-03T04:16:46.764Z,7.40
2023-03-03T04:19:14.787Z,7.18
2023-03-03T04:21:44.454Z,8.30
2023-03-03T04:24:12.411Z,7.32
2023-03-03T04:26:40.946Z,7.70
2023-03-03T04:29:10.984Z,7.57
2023-03-03T04:31:39.882Z,9.43
2023-03-03T04:34:10.107Z,6.65
2023-03-03T04:36:38.571Z,7.60
2023-03-03T04:39:06.543Z,8.15
2023-03-03T04:41:35.492Z,6.85
2023-03-03T04:44:03.647Z,7.80
2023-03-03T04:46:31.906Z,8.10
2023-03-03T04:49:00.130Z,6.85
2023-03-03T04:51:28.842Z,7.47
2023-03-03T04:53:56.840Z,7.13
2023-03-03T04:56:25.824Z,7.85
2023-03-03T04:58:53.725Z,7.75
2023-03-03T05:01:22.142Z,7.38
2023-03-03T05:03:51.329Z,7.47
2023-03-03T05:06:19.770Z,6.72
2023-03-03T05:08:47.861Z,8.38
2023-03-03T05:11:16.398Z,7.38
2023-03-03T05:13:44.736Z,7.90
2023-03-03T05:16:13.316Z,8.45
2023-03-03T05:18:45.772Z,7.53
2023-03-03T05:21:14.235Z,7.82
2023-03-03T05:23:42.173Z,7.50
2023-03-03T05:26:10.454Z,7.43
2023-03-03T05:28:38.416Z,8.30
2023-03-03T05:31:06.742Z,8.07
2023-03-03T05:33:34.762Z,8.55
2023-03-03T05:36:02.957Z,7.03
2023-03-03T05:38:30.876Z,7.80
2023-03-03T05:40:59.213Z,8.00
2023-03-03T05:43:27.195Z,9.52
2023-03-03T05:45:59.356Z,8.05
2023-03-03T05:48:27.882Z,7.80
2023-03-03T05:50:59.808Z,12.95
2023-03-03T05:53:29.125Z,8.05
2023-03-03T05:55:57.826Z,8.18
2023-03-03T05:58:25.892Z,9.07
2023-03-03T06:00:54.253Z,9.45
2023-03-03T06:03:22.494Z,8.05
2023-03-03T06:05:50.901Z,8.90
2023-03-03T06:08:18.903Z,9.32
2023-03-03T06:10:47.249Z,9.27
2023-03-03T06:13:16.264Z,10.07
2023-03-03T06:15:44.760Z,9.95
2023-03-03T06:18:12.711Z,9.93
2023-03-03T06:20:40.970Z,10.20
2023-03-03T06:23:08.932Z,10.40
2023-03-03T06:25:40.243Z,10.05
2023-03-03T06:28:08.247Z,9.25
2023-03-03T06:30:36.637Z,13.88
2023-03-03T06:33:04.579Z,13.85
2023-03-03T06:35:33.064Z,12.43
2023-03-03T06:38:01.075Z,10.45
2023-03-03T06:40:29.566Z,11.88
2023-03-03T06:42:57.658Z,12.10
2023-03-03T06:45:25.966Z,11.00
2023-03-03T06:47:53.909Z,10.73
2023-03-03T06:50:22.542Z,11.43
2023-03-03T06:52:51.857Z,11.43
2023-03-03T06:55:23.492Z,11.32
2023-03-03T06:57:51.528Z,10.95
2023-03-03T07:00:30.940Z,10.80
2023-03-03T07:03:11.697Z,13.55
2023-03-03T07:05:40.057Z,12.70
2023-03-03T07:08:20.227Z,9.77
2023-03-03T07:10:49.896Z,9.05
2023-03-03T07:13:26.924Z,10.07
2023-03-03T07:15:57.494Z,9.38
2023-03-03T07:18:34.023Z,10.27
2023-03-03T07:21:23.954Z,7.78
2023-03-03T07:23:54.985Z,8.20
2023-03-03T07:26:33.404Z,8.20
2023-03-03T07:29:22.748Z,9.02
2023-03-03T07:31:52.134Z,8.95
2023-03-03T07:34:27.318Z,10.93
2023-03-03T07:37:00.503Z,8.18
2023-03-03T07:39:40.628Z,8.17
2023-03-03T07:42:35.279Z,7.28
2023-03-03T07:45:32.751Z,8.25
2023-03-03T07:48:24.433Z,7.60
2023-03-03T07:50:53.079Z,7.53
2023-03-03T07:53:29.415Z,6.35
2023-03-03T07:55:57.329Z,5.90
2023-03-03T07:58:38.535Z,8.25
2023-03-03T08:01:40.096Z,6.82
2023-03-03T08:04:25.406Z,7.63
2023-03-03T08:06:56.524Z,7.35
2023-03-03T08:09:31.347Z,7.72
2023-03-03T08:12:08.139Z,8.98
2023-03-03T08:14:39.000Z,10.93
2023-03-03T08:17:25.396Z,9.43
2023-03-03T08:19:56.409Z,9.27
2023-03-03T08:22:37.274Z,9.90
2023-03-03T08:25:05.744Z,10.05
2023-03-03T08:27:33.746Z,10.02
2023-03-03T08:30:02.127Z,10.25
2023-03-03T08:32:30.350Z,10.20
2023-03-03T08:34:58.689Z,11.77
2023-03-03T08:37:26.667Z,10.77
2023-03-03T08:39:54.976Z,9.73
2023-03-03T08:42:22.990Z,9.40
2023-03-03T08:44:51.300Z,10.90
2023-03-03T08:47:19.426Z,9.38
2023-03-03T08:49:47.833Z,11.73
2023-03-03T08:52:15.888Z,10.25
2023-03-03T08:54:44.622Z,10.82
2023-03-03T08:57:12.560Z,10.60
2023-03-03T08:59:41.091Z,10.65
2023-03-03T09:02:09.402Z,10.82
2023-03-03T09:04:37.704Z,10.45
2023-03-03T09:07:05.643Z,9.73
2023-03-03T09:09:34.002Z,10.00
2023-03-03T09:12:15.209Z,10.88
2023-03-03T09:14:43.858Z,10.15
2023-03-03T09:17:30.659Z,10.80
2023-03-03T09:20:11.569Z,9.77
2023-03-03T09:22:39.398Z,10.65
2023-03-03T09:25:22.177Z,11.18
2023-03-03T09:27:52.999Z,10.05
2023-03-03T09:30:27.287Z,9.18
2023-03-03T09:32:58.307Z,10.15
2023-03-03T09:35:29.349Z,10.02
2023-03-03T09:37:57.221Z,8.90
2023-03-03T09:41:16.636Z,10.48
2023-03-03T09:44:17.487Z,8.80
2023-03-03T09:47:06.845Z,9.07
2023-03-03T09:49:38.937Z,8.98
2023-03-03T09:52:39.012Z,9.32
2023-03-03T09:55:25.469Z,9.90
2023-03-03T09:58:12.824Z,9.93
2023-03-03T10:01:02.407Z,9.85
2023-03-03T10:03:42.897Z,10.02
2023-03-03T10:06:33.479Z,10.00
2023-03-03T10:09:19.947Z,28.33
2023-03-03T10:12:00.099Z,10.05
2023-03-03T10:15:11.213Z,9.23
2023-03-03T10:17:54.019Z,10.82
2023-03-03T10:20:48.978Z,12.97
2023-03-03T10:23:37.341Z,10.05
2023-03-03T10:26:38.394Z,10.25
2023-03-03T10:29:38.276Z,10.48
2023-03-03T10:32:33.215Z,9.80
2023-03-03T10:35:14.436Z,10.25
2023-03-03T10:37:45.344Z,10.43
2023-03-03T10:40:41.626Z,10.25
2023-03-03T10:43:32.364Z,9.52
2023-03-03T10:46:10.403Z,11.32
2023-03-03T10:48:44.968Z,10.93
2023-03-03T10:51:34.706Z,10.35
2023-03-03T10:54:24.689Z,9.98
2023-03-03T10:57:20.187Z,10.73
2023-03-03T11:00:19.095Z,10.63
2023-03-03T11:03:04.766Z,9.38
2023-03-03T11:06:00.216Z,10.52
2023-03-03T11:08:46.489Z,9.90
2023-03-03T11:11:41.293Z,11.30
2023-03-03T11:14:32.490Z,9.43
2023-03-03T11:17:49.657Z,10.23
2023-03-03T11:20:29.391Z,10.05
2023-03-03T11:23:00.178Z,10.45
2023-03-03T11:25:34.448Z,10.18
2023-03-03T11:28:15.425Z,9.88
2023-03-03T11:31:02.109Z,10.20
2023-03-03T11:33:52.525Z,10.10
2023-03-03T11:36:39.102Z,9.45
2023-03-03T11:39:13.998Z,9.52
2023-03-03T11:41:58.685Z,8.85
2023-03-03T11:44:40.749Z,8.75
2023-03-03T11:47:31.529Z,8.35
2023-03-03T11:50:08.812Z,8.45
2023-03-03T11:53:00.772Z,8.77
2023-03-03T11:55:37.951Z,8.50
2023-03-03T11:58:16.038Z,8.07
2023-03-03T12:00:51.467Z,7.97
2023-03-03T12:03:26.899Z,7.80
2023-03-03T12:06:04.056Z,7.35
2023-03-03T12:09:00.033Z,8.27
2023-03-03T12:11:54.185Z,7.13
2023-03-03T12:14:45.048Z,8.35
2023-03-03T12:17:31.705Z,6.80
2023-03-03T12:20:14.451Z,7.25
2023-03-03T12:23:06.714Z,7.20
2023-03-03T12:25:45.716Z,6.65
2023-03-03T12:28:21.237Z,8.05
2023-03-03T12:31:04.706Z,7.53
2023-03-03T12:34:11.560Z,8.65
2023-03-03T12:36:47.878Z,7.95
2023-03-03T12:39:41.539Z,8.77
2023-03-03T12:42:14.561Z,8.60
2023-03-03T12:45:13.772Z,8.82
2023-03-03T12:47:49.482Z,8.07
2023-03-03T12:50:27.715Z,7.57
2023-03-03T12:53:38.222Z,7.60
2023-03-03T12:56:09.177Z,6.85
2023-03-03T12:58:36.969Z,7.35
2023-03-03T13:01:28.432Z,6.82
2023-03-03T13:04:12.376Z,8.35
2023-03-03T13:07:05.085Z,7.03
2023-03-03T13:10:06.163Z,6.35
2023-03-03T13:12:43.104Z,6.80
2023-03-03T13:15:31.533Z,6.68
2023-03-03T13:18:19.189Z,7.55
2023-03-03T13:20:56.147Z,8.13
2023-03-03T13:23:38.504Z,6.93
2023-03-03T13:26:17.220Z,7.07
2023-03-03T13:29:01.946Z,8.18
2023-03-03T13:31:37.755Z,7.70
2023-03-03T13:34:09.147Z,8.00
2023-03-03T13:36:54.394Z,8.90
2023-03-03T13:39:28.440Z,7.35
2023-03-03T13:42:19.881Z,7.13
2023-03-03T13:44:50.938Z,7.30
2023-03-03T13:47:42.167Z,6.05
2023-03-03T13:50:28.631Z,6.03
2023-03-03T13:53:22.191Z,5.55
2023-03-03T13:56:15.115Z,6.32
2023-03-03T13:58:49.075Z,5.63
2023-03-03T14:01:25.057Z,5.78
2023-03-03T14:04:11.418Z,6.85
2023-03-03T14:06:43.106Z,6.47
2023-03-03T14:09:34.197Z,5.25
2023-03-03T14:12:17.598Z,6.32
2023-03-03T14:15:09.932Z,6.25
2023-03-03T14:18:02.719Z,5.78
2023-03-03T14:20:32.426Z,5.35
2023-03-03T14:23:27.849Z,5.47
2023-03-03T14:26:00.724Z,5.80
2023-03-03T14:28:30.489Z,5.88
2023-03-03T14:30:59.082Z,5.93
2023-03-03T14:33:31.748Z,5.93
2023-03-03T14:35:59.574Z,6.25
2023-03-03T14:38:33.418Z,6.55
2023-03-03T14:41:18.844Z,6.35
2023-03-03T14:44:20.227Z,6.00
2023-03-03T14:47:03.706Z,6.10
2023-03-03T14:49:33.174Z,5.63
2023-03-03T14:52:19.918Z,6.20
2023-03-03T14:55:00.929Z,7.13
2023-03-03T14:57:47.037Z,6.75
2023-03-03T15:00:15.192Z,7.10
2023-03-03T15:02:56.241Z,6.80
2023-03-03T15:05:27.348Z,7.57
2023-03-03T15:08:09.161Z,8.75
2023-03-03T15:10:40.544Z,7.43
2023-03-03T15:13:20.476Z,7.90
2023-03-03T15:16:19.629Z,7.10
2023-03-03T15:19:13.818Z,7.82
2023-03-03T15:22:00.620Z,7.68
2023-03-03T15:24:41.647Z,8.20
2023-03-03T15:27:21.798Z,7.68
2023-03-03T15:29:58.480Z,8.30
2023-03-03T15:32:39.066Z,9.40
2023-03-03T15:35:20.438Z,9.20
2023-03-03T15:38:11.625Z,8.98
2023-03-03T15:40:49.748Z,9.02
2023-03-03T15:43:25.347Z,38.45
2023-03-03T15:46:12.386Z,14.55
2023-03-03T15:48:40.376Z,8.70
2023-03-03T15:52:02.700Z,9.43
2023-03-03T15:55:12.367Z,11.10
2023-03-03T15:57:46.178Z,10.02
2023-03-03T16:00:41.869Z,9.00
2023-03-03T16:03:17.516Z,9.23
2023-03-03T16:06:01.711Z,9.18
2023-03-03T16:08:53.684Z,9.25
2023-03-03T16:11:29.068Z,9.82
2023-03-03T16:14:11.002Z,11.82
2023-03-03T16:16:53.576Z,9.18
2023-03-03T16:19:45.452Z,9.73
2023-03-03T16:22:24.891Z,9.73
2023-03-03T16:25:20.301Z,9.50
2023-03-03T16:27:59.219Z,9.77
2023-03-03T16:30:40.237Z,9.15
2023-03-03T16:33:23.212Z,9.05
2023-03-03T16:36:27.235Z,9.55
2023-03-03T16:39:40.965Z,9.50
2023-03-03T16:42:26.821Z,9.38
2023-03-03T16:45:21.752Z,9.73
2023-03-03T16:47:53.749Z,10.07
2023-03-03T16:50:21.801Z,10.27
2023-03-03T16:53:23.630Z,8.88
2023-03-03T16:56:09.535Z,9.50
2023-03-03T16:58:42.531Z,9.80
2023-03-03T17:01:33.610Z,9.75
2023-03-03T17:04:05.504Z,9.63
2023-03-03T17:06:59.554Z,9.60
2023-03-03T17:10:06.085Z,12.32
2023-03-03T17:13:11.545Z,12.98
2023-03-03T17:15:57.209Z,10.48
2023-03-03T17:19:00.420Z,11.27
2023-03-03T17:21:36.783Z,10.35
2023-03-03T17:24:23.341Z,10.30
2023-03-03T17:27:04.329Z,9.68
2023-03-03T17:29:51.074Z,10.65
2023-03-03T17:32:24.936Z,11.93
2023-03-03T17:35:14.606Z,10.93
2023-03-03T17:38:00.732Z,11.50
2023-03-03T17:40:44.299Z,10.80
2023-03-03T17:43:28.603Z,11.93
2023-03-03T17:46:01.958Z,10.77
2023-03-03T17:48:39.581Z,10.88
2023-03-03T17:51:29.707Z,11.70
2023-03-03T17:54:08.705Z,11.65
2023-03-03T17:56:40.200Z,12.68
2023-03-03T17:59:42.370Z,13.10
2023-03-03T18:02:33.371Z,12.70
2023-03-03T18:05:26.038Z,12.75
2023-03-03T18:08:09.831Z,13.20
2023-03-03T18:10:59.472Z,11.45
2023-03-03T18:14:02.985Z,12.40
2023-03-03T18:16:58.598Z,11.68
2023-03-03T18:19:49.344Z,14.52
2023-03-03T18:22:24.669Z,12.02
2023-03-03T18:24:52.839Z,12.88
2023-03-03T18:27:43.099Z,12.77
2023-03-03T18:30:17.702Z,13.13
2023-03-03T18:33:01.478Z,12.38
2023-03-03T18:38:19.161Z,14.32
2023-03-03T18:40:52.030Z,14.23
2023-03-03T18:43:44.873Z,13.25
2023-03-03T18:46:24.970Z,13.77
2023-03-03T18:49:06.330Z,13.82
2023-03-03T18:51:34.634Z,12.57
2023-03-03T18:54:16.537Z,12.00
2023-03-03T18:56:53.832Z,12.35
2023-03-03T18:59:30.556Z,11.88
2023-03-03T19:02:08.222Z,11.55
2023-03-03T19:04:39.119Z,12.15
2023-03-03T19:07:16.562Z,12.27
2023-03-03T19:09:50.738Z,14.35
2023-03-03T19:12:39.707Z,14.43
2023-03-03T19:15:29.552Z,16.38
2023-03-03T19:18:01.772Z,13.25
2023-03-03T19:20:42.346Z,12.45
2023-03-03T19:23:37.111Z,14.40
2023-03-03T19:29:10.001Z,13.20
2023-03-03T19:31:49.571Z,13.05
2023-03-03T19:34:44.538Z,14.38
2023-03-03T19:37:37.158Z,14.45
2023-03-03T19:40:32.184Z,14.82
2023-03-03T19:43:17.062Z,14.07
2023-03-03T19:45:47.876Z,15.05
2023-03-03T19:48:24.026Z,13.95
2023-03-03T19:51:10.323Z,15.27
2023-03-03T19:53:44.073Z,13.70
2023-03-03T19:56:24.243Z,15.50
2023-03-03T19:59:03.606Z,14.73
2023-03-03T20:02:03.884Z,14.65
2023-03-03T20:04:53.396Z,14.25
2023-03-03T20:07:42.974Z,15.00
2023-03-03T20:10:29.128Z,13.98
2023-03-03T20:13:21.943Z,14.15
2023-03-03T20:16:20.780Z,14.48
2023-03-03T20:19:16.403Z,14.43
2023-03-03T20:22:08.602Z,14.85
2023-03-03T20:24:55.804Z,15.25
2023-03-03T20:27:58.148Z,14.85
2023-03-03T20:30:26.523Z,15.40
2023-03-03T20:33:02.573Z,14.68
2023-03-03T20:35:52.579Z,15.63
2023-03-03T20:38:33.148Z,16.10
2023-03-03T20:41:07.233Z,15.70
2023-03-03T20:46:44.595Z,16.35
2023-03-03T20:49:28.364Z,16.88
